Time;durP1;ratioP1;P1;durP2;ratioP2;P2;SDS_P1;SDS_P2;PMS_P1;PMS_P2;Temp;Humidity;BMP_temperature;BMP_pressure;BME280_temperature;BME280_humidity;BME280_pressure;Samples;Min_cycle;Max_cycle;Signal;HPM_P1;HPM_P2
2022/06/17 00:00:16;;;;;;;3.10;1.92;;;;;;;;;;5031022;28;20026;-69
2022/06/17 00:02:42;;;;;;;3.00;1.75;;;;;;;;;;5031664;28;20017;-70
2022/06/17 00:05:08;;;;;;;3.20;2.05;;;;;;;;;;5029013;28;20459;-69
2022/06/17 00:07:35;;;;;;;1.70;1.60;;;;;;;;;;5030806;28;20112;-69
2022/06/17 00:10:01;;;;;;;3.60;1.90;;;;;;;;;;5030738;28;20541;-69
2022/06/17 00:12:27;;;;;;;1.92;1.60;;;;;;;;;;5029234;28;20025;-70
2022/06/17 00:17:37;;;;;;;3.78;2.15;;;18.30;71.40;;;;;;5019167;28;20040;-69
2022/06/17 00:20:10;;;;;;;2.97;1.58;;;18.30;71.60;;;;;;5030361;28;20033;-69
2022/06/17 00:22:39;;;;;;;1.70;1.60;;;18.20;71.70;;;;;;5031069;28;20436;-70
2022/06/17 00:25:19;;;;;;;2.15;1.88;;;18.20;73.80;;;;;;5031168;28;20419;-69
2022/06/17 00:27:44;;;;;;;3.25;1.83;;;18.10;72.20;;;;;;5030959;28;20029;-69
2022/06/17 00:30:19;;;;;;;3.65;2.00;;;18.00;72.20;;;;;;5032378;28;20398;-69
2022/06/17 00:32:45;;;;;;;3.25;2.05;;;18.00;72.40;;;;;;5030786;28;20104;-69
2022/06/17 00:35:12;;;;;;;2.50;1.40;;;18.00;72.50;;;;;;5027189;28;20118;-69
2022/06/17 00:37:39;;;;;;;3.75;1.95;;;17.90;72.50;;;;;;5023872;28;20041;-70
2022/06/17 00:40:18;;;;;;;2.58;1.98;;;17.80;72.50;;;;;;5033930;28;20544;-70
2022/06/17 00:42:45;;;;;;;3.28;1.70;;;17.80;72.80;;;;;;5030731;28;20029;-69
2022/06/17 00:45:18;;;;;;;2.05;1.80;;;17.80;73.00;;;;;;5033467;28;20049;-69
2022/06/17 00:47:52;;;;;;;2.15;1.45;;;17.70;73.20;;;;;;5034296;28;20044;-70
2022/06/17 00:50:38;;;;;;;2.58;1.85;;;17.60;73.40;;;;;;5032755;28;20474;-69
2022/06/17 00:53:07;;;;;;;2.17;1.65;;;17.60;73.40;;;;;;5033055;28;20052;-70
2022/06/17 00:56:01;;;;;;;3.33;1.70;;;17.60;73.70;;;;;;5033732;28;20060;-70
2022/06/17 00:58:52;;;;;;;2.20;1.70;;;17.50;73.80;;;;;;5013806;28;20571;-69
2022/06/17 01:01:18;;;;;;;2.22;1.60;;;17.50;74.20;;;;;;5033088;28;20092;-69
2022/06/17 01:03:44;;;;;;;4.13;1.92;;;17.40;74.30;;;;;;5032898;28;20041;-69
2022/06/17 01:06:17;;;;;;;2.13;1.95;;;17.40;74.50;;;;;;5044043;28;20029;-70
2022/06/17 01:11:36;;;;;;;3.33;1.70;;;17.30;75.00;;;;;;5022288;28;20390;-69
2022/06/17 01:14:05;;;;;;;3.17;2.28;;;17.20;75.20;;;;;;5039252;28;20094;-70
2022/06/17 01:16:34;;;;;;;2.92;1.70;;;17.20;75.60;;;;;;5033874;28;20116;-70
2022/06/17 01:19:07;;;;;;;3.30;2.15;;;17.20;75.80;;;;;;5034170;28;20030;-69
2022/06/17 01:21:46;;;;;;;3.40;2.25;;;17.10;76.00;;;;;;5031937;28;20057;-69
2022/06/17 01:24:12;;;;;;;3.92;1.92;;;17.10;76.30;;;;;;5033022;28;20026;-69
2022/06/17 01:26:38;;;;;;;3.42;1.85;;;17.00;76.40;;;;;;5033607;28;20025;-69
2022/06/17 01:29:11;;;;;;;3.70;1.92;;;17.00;76.60;;;;;;5033641;28;20040;-69
2022/06/17 01:31:37;;;;;;;2.58;1.83;;;17.00;76.70;;;;;;5021026;28;20486;-69
2022/06/17 01:34:03;;;;;;;2.92;2.05;;;16.90;76.70;;;;;;5033765;28;20063;-69
2022/06/17 01:36:29;;;;;;;1.95;1.70;;;16.90;77.00;;;;;;5028968;28;20068;-69
2022/06/17 01:38:57;;;;;;;2.72;1.90;;;16.80;77.00;;;;;;5033497;28;20120;-69
2022/06/17 01:41:30;;;;;;;2.42;1.58;;;16.80;77.20;;;;;;5032184;28;20034;-69
2022/06/17 01:44:07;;;;;;;2.63;1.50;;;16.80;77.60;;;;;;5033826;28;20029;-70
2022/06/17 01:46:43;;;;;;;3.40;1.90;;;16.80;77.70;;;;;;5033544;28;20060;-70
2022/06/17 01:49:18;;;;;;;2.10;1.88;;;16.70;78.00;;;;;;5031480;28;20030;-70
2022/06/17 01:51:53;;;;;;;2.95;1.80;;;16.70;78.30;;;;;;5033451;28;20064;-70
2022/06/17 01:54:29;;;;;;;2.83;2.47;;;16.60;78.60;;;;;;5031292;28;20030;-70
2022/06/17 01:56:58;;;;;;;2.28;2.00;;;16.60;79.00;;;;;;5033055;28;20022;-69
2022/06/17 01:59:36;;;;;;;4.25;1.75;;;16.60;79.10;;;;;;5033228;28;20053;-69
2022/06/17 02:02:04;;;;;;;3.63;1.73;;;16.60;79.30;;;;;;5032519;28;20025;-69
2022/06/17 02:04:36;;;;;;;2.95;1.75;;;16.50;79.30;;;;;;5033098;28;20025;-69
2022/06/17 02:07:15;;;;;;;2.40;1.85;;;16.60;79.50;;;;;;5034751;28;20029;-69
2022/06/17 02:09:42;;;;;;;4.83;2.47;;;16.50;79.60;;;;;;5031143;28;20021;-69
2022/06/17 02:12:08;;;;;;;4.47;2.30;;;16.50;79.80;;;;;;5031956;28;20532;-69
2022/06/17 02:14:34;;;;;;;3.78;2.30;;;16.40;80.00;;;;;;5031806;28;20510;-68
2022/06/17 02:17:01;;;;;;;3.03;2.30;;;16.40;80.30;;;;;;5032356;28;20048;-69
2022/06/17 02:19:31;;;;;;;4.25;1.67;;;16.40;80.50;;;;;;5031843;28;20040;-68
2022/06/17 02:22:09;;;;;;;;;;;16.30;80.70;;;;;;5033197;28;20071;-68
2022/06/17 02:24:36;;;;;;;4.88;1.90;;;16.40;80.70;;;;;;5032452;28;19932;-69
2022/06/17 02:27:04;;;;;;;4.07;2.05;;;16.30;80.90;;;;;;5031218;28;20029;-69
2022/06/17 02:29:34;;;;;;;4.22;2.25;;;16.30;81.10;;;;;;5031343;28;20021;-68
2022/06/17 02:32:02;;;;;;;3.08;1.90;;;16.30;81.40;;;;;;5032317;28;20025;-69
2022/06/17 02:34:29;;;;;;;2.95;1.80;;;16.20;81.50;;;;;;5031285;28;20040;-69
2022/06/17 02:37:13;;;;;;;3.65;2.25;;;16.20;81.80;;;;;;5027904;28;20045;-70
2022/06/17 02:39:45;;;;;;;3.47;1.83;;;16.20;82.70;;;;;;5031572;28;20438;-69
2022/06/17 02:42:24;;;;;;;1.90;1.60;;;16.10;82.20;;;;;;5031763;28;20030;-69
2022/06/17 02:44:54;;;;;;;2.13;1.87;;;16.10;82.50;;;;;;5030878;28;20060;-70
2022/06/17 02:47:21;;;;;;;2.22;2.03;;;16.00;83.00;;;;;;5031071;28;20495;-70
2022/06/17 02:49:47;;;;;;;3.05;1.83;;;16.00;83.50;;;;;;5032113;28;20022;-69
2022/06/17 02:52:18;;;;;;;4.80;2.22;;;15.90;83.70;;;;;;5031339;28;20501;-69
2022/06/17 02:54:46;;;;;;;;;;;15.90;84.00;;;;;;5028831;28;20029;-69
2022/06/17 02:57:27;;;;;;;2.83;1.85;;;15.90;84.30;;;;;;5031025;28;20263;-69
2022/06/17 03:00:11;;;;;;;1.70;1.60;;;15.80;84.40;;;;;;5032090;28;20509;-70
2022/06/17 03:02:47;;;;;;;3.65;1.95;;;15.80;84.80;;;;;;5030111;28;20466;-70
2022/06/17 03:05:22;;;;;;;3.08;1.80;;;15.80;85.00;;;;;;5031270;28;20390;-69
2022/06/17 03:07:49;;;;;;;2.22;1.90;;;15.80;85.20;;;;;;5031111;28;20039;-70
2022/06/17 03:10:35;;;;;;;3.35;2.50;;;15.80;85.50;;;;;;5031233;28;20040;-70
2022/06/17 03:13:37;;;;;;;2.75;1.85;;;15.80;86.30;;;;;;5017897;28;20049;-69
2022/06/17 03:16:08;;;;;;;4.18;2.00;;;15.80;86.30;;;;;;5031793;28;20391;-69
2022/06/17 03:18:35;;;;;;;4.72;2.25;;;15.70;86.50;;;;;;5030082;28;20065;-70
2022/06/17 03:21:01;;;;;;;2.50;1.67;;;15.80;86.90;;;;;;5031389;28;20051;-68
2022/06/17 03:23:59;;;;;;;2.20;1.73;;;15.70;87.00;;;;;;5030359;28;20060;-69
2022/06/17 03:26:30;;;;;;;3.33;1.88;;;15.70;87.50;;;;;;5029822;28;20045;-69
2022/06/17 03:28:58;;;;;;;3.50;1.70;;;15.70;87.90;;;;;;5031548;28;20055;-69
2022/06/17 03:31:59;;;;;;;2.00;1.70;;;15.70;88.10;;;;;;5030581;28;20033;-69
2022/06/17 03:34:33;;;;;;;1.67;1.58;;;15.70;88.30;;;;;;5024311;28;20065;-68
2022/06/17 03:37:06;;;;;;;2.88;1.98;;;15.70;88.80;;;;;;5029215;28;20382;-69
2022/06/17 03:39:43;;;;;;;2.85;1.80;;;15.60;89.40;;;;;;5027265;28;20025;-69
2022/06/17 03:42:17;;;;;;;1.92;1.60;;;15.70;89.90;;;;;;5030941;28;20022;-69
2022/06/17 03:45:18;;;;;;;2.38;2.00;;;15.70;90.00;;;;;;5031471;28;20110;-69
2022/06/17 03:48:13;;;;;;;2.67;1.73;;;15.70;90.20;;;;;;5030640;28;20482;-70
2022/06/17 03:50:45;;;;;;;4.22;1.80;;;15.70;90.40;;;;;;5030702;28;20021;-68
2022/06/17 03:53:33;;;;;;;3.35;2.15;;;15.80;90.50;;;;;;5029880;28;20025;-69
2022/06/17 03:56:05;;;;;;;6.30;2.22;;;15.70;90.70;;;;;;5030427;28;20037;-69
2022/06/17 03:58:33;;;;;;;2.35;1.80;;;15.80;90.80;;;;;;5029384;28;20046;-69
2022/06/17 04:01:13;;;;;;;3.10;1.55;;;15.80;90.90;;;;;;5030209;28;20033;-70
2022/06/17 04:03:42;;;;;;;2.83;1.52;;;15.80;91.00;;;;;;5030684;28;20029;-69
2022/06/17 04:06:19;;;;;;;2.03;1.77;;;15.90;91.30;;;;;;5030807;28;20091;-70
2022/06/17 04:09:00;;;;;;;2.28;1.70;;;15.90;91.40;;;;;;5030939;28;20080;-69
2022/06/17 04:11:29;;;;;;;2.53;1.73;;;15.90;91.50;;;;;;5029817;28;20113;-69
2022/06/17 04:13:58;;;;;;;2.17;1.52;;;15.90;91.70;;;;;;5031834;28;20041;-68
2022/06/17 04:16:46;;;;;;;2.25;1.90;;;16.00;92.00;;;;;;5033953;28;20040;-69
2022/06/17 04:19:19;;;;;;;2.47;1.83;;;15.90;92.20;;;;;;5034361;28;20125;-69
2022/06/17 04:21:44;;;;;;;2.97;1.88;;;16.00;92.40;;;;;;5034419;28;20029;-68
2022/06/17 04:24:17;;;;;;;2.38;1.85;;;16.00;92.50;;;;;;5034712;28;20378;-69
2022/06/17 04:26:46;;;;;;;2.05;1.65;;;16.00;92.80;;;;;;5034380;28;20053;-68
2022/06/17 04:29:18;;;;;;;2.83;2.00;;;16.00;93.10;;;;;;5034761;28;20573;-70
2022/06/17 04:31:47;;;;;;;3.13;1.77;;;16.00;93.30;;;;;;5032561;28;20435;-69
2022/06/17 04:34:16;;;;;;;2.38;2.00;;;16.10;93.50;;;;;;5025050;28;20025;-69
2022/06/17 04:36:49;;;;;;;1.67;1.58;;;16.10;93.50;;;;;;5025062;28;20025;-69
2022/06/17 04:39:22;;;;;;;2.38;1.92;;;16.10;93.40;;;;;;5034403;28;20120;-69
2022/06/17 04:41:52;;;;;;;2.05;1.88;;;16.30;93.50;;;;;;5034557;28;20053;-69
2022/06/17 04:44:18;;;;;;;4.97;2.10;;;16.30;93.50;;;;;;5033533;28;20021;-69
2022/06/17 04:46:58;;;;;;;3.45;2.35;;;16.30;93.40;;;;;;5034180;28;20037;-69
2022/06/17 04:49:28;;;;;;;2.53;1.90;;;16.40;93.30;;;;;;5031264;28;20477;-68
2022/06/17 04:52:00;;;;;;;4.68;2.05;;;16.50;93.40;;;;;;5033997;28;20116;-69
2022/06/17 04:54:27;;;;;;;2.10;1.80;;;16.60;93.40;;;;;;5032954;28;20491;-68
2022/06/17 04:56:56;;;;;;;2.63;1.80;;;16.60;93.20;;;;;;5034191;28;20061;-69
2022/06/17 04:59:37;;;;;;;2.30;2.00;;;16.70;93.20;;;;;;5032731;28;20112;-70
2022/06/17 05:02:12;;;;;;;3.50;2.40;;;16.70;92.90;;;;;;5035063;28;20375;-69
2022/06/17 05:04:38;;;;;;;3.08;2.17;;;16.80;92.60;;;;;;5031452;28;20238;-69
2022/06/17 05:07:04;;;;;;;3.38;2.13;;;16.90;92.70;;;;;;5043593;28;20035;-68
2022/06/17 05:09:37;;;;;;;3.63;1.90;;;17.00;92.50;;;;;;5033118;28;20427;-69
2022/06/17 05:12:12;;;;;;;3.75;2.58;;;17.10;92.30;;;;;;5034330;28;20021;-69
2022/06/17 05:14:51;;;;;;;5.78;2.53;;;17.10;92.10;;;;;;5032483;28;20129;-69
2022/06/17 05:17:18;;;;;;;3.73;1.90;;;17.30;91.90;;;;;;5034614;28;20040;-69
2022/06/17 05:19:43;;;;;;;3.90;2.00;;;17.40;91.30;;;;;;5037823;28;20275;-69
2022/06/17 05:22:18;;;;;;;2.50;1.65;;;17.50;90.90;;;;;;5032069;28;20026;-69
2022/06/17 05:24:44;;;;;;;3.10;1.73;;;17.60;90.60;;;;;;5030651;28;20033;-69
2022/06/17 05:27:10;;;;;;;4.97;2.42;;;17.70;90.30;;;;;;5033337;28;20027;-69
2022/06/17 05:29:36;;;;;;;2.75;1.92;;;17.80;89.40;;;;;;5032509;28;20022;-69
2022/06/17 05:32:02;;;;;;;2.30;1.80;;;17.90;88.90;;;;;;5033635;28;20025;-69
2022/06/17 05:34:28;;;;;;;5.38;2.45;;;18.00;88.40;;;;;;5032720;28;20033;-70
2022/06/17 05:36:56;;;;;;;2.90;1.80;;;18.10;88.20;;;;;;5024242;28;20127;-69
2022/06/17 05:39:23;;;;;;;2.40;1.75;;;18.30;86.20;;;;;;5027670;28;20121;-74
2022/06/17 05:41:48;;;;;;;5.78;2.28;;;18.40;86.40;;;;;;5030338;28;20857;-74
2022/06/17 05:44:15;;;;;;;4.07;2.00;;;18.40;86.20;;;;;;5034482;28;20025;-72
2022/06/17 05:46:43;;;;;;;4.80;2.40;;;18.50;86.10;;;;;;5032457;28;20017;-73
2022/06/17 05:49:09;;;;;;;6.80;2.22;;;18.60;86.10;;;;;;5032626;28;20048;-73
2022/06/17 05:51:34;;;;;;;4.60;2.72;;;18.70;85.90;;;;;;5032810;28;20025;-72
2022/06/17 05:54:00;;;;;;;3.63;2.10;;;18.80;85.30;;;;;;5033586;28;20148;-71
2022/06/17 05:56:25;;;;;;;7.22;2.47;;;19.00;84.00;;;;;;5032199;28;20377;-73
2022/06/17 05:58:51;;;;;;;6.10;2.50;;;19.10;83.90;;;;;;5033483;28;20374;-72
2022/06/17 06:01:17;;;;;;;3.97;1.80;;;19.20;83.30;;;;;;5032987;28;20029;-73
2022/06/17 06:03:42;;;;;;;5.70;2.05;;;19.20;83.00;;;;;;5030639;28;20037;-73
2022/06/17 06:06:08;;;;;;;5.63;2.78;;;19.30;82.80;;;;;;5033431;28;20037;-74
2022/06/17 06:08:34;;;;;;;4.78;2.28;;;19.30;82.60;;;;;;5032403;28;20037;-74
2022/06/17 06:11:07;;;;;;;4.38;2.45;;;19.40;82.50;;;;;;5033328;28;20386;-73
2022/06/17 06:13:33;;;;;;;5.65;2.28;;;19.50;82.10;;;;;;5035224;28;20042;-74
2022/06/17 06:16:00;;;;;;;9.30;2.45;;;19.60;82.20;;;;;;5033182;28;20028;-74
2022/06/17 06:18:35;;;;;;;4.93;2.40;;;19.70;81.60;;;;;;5032762;28;20044;-73
2022/06/17 06:21:04;;;;;;;7.13;1.98;;;19.80;80.00;;;;;;5038848;28;20473;-73
2022/06/17 06:23:34;;;;;;;2.60;1.73;;;19.80;80.20;;;;;;5037119;28;20061;-75
2022/06/17 06:25:59;;;;;;;3.85;2.10;;;19.90;79.70;;;;;;5040712;28;20354;-74
2022/06/17 06:28:26;;;;;;;5.13;2.00;;;20.00;78.50;;;;;;5039467;28;20029;-74
2022/06/17 06:30:57;;;;;;;5.50;2.00;;;20.10;78.80;;;;;;5044912;28;20029;-74
2022/06/17 06:33:23;;;;;;;;;;;20.10;78.30;;;;;;5039799;28;20167;-76
2022/06/17 06:35:48;;;;;;;4.38;2.60;;;20.20;78.70;;;;;;5035252;28;20394;-73
2022/06/17 06:38:14;;;;;;;3.10;1.90;;;20.20;79.10;;;;;;5032553;28;20037;-72
2022/06/17 06:40:41;;;;;;;5.47;2.38;;;20.20;79.20;;;;;;5038783;28;20032;-74
2022/06/17 06:43:13;;;;;;;4.00;2.03;;;20.20;79.60;;;;;;5036169;28;20320;-74
2022/06/17 06:45:39;;;;;;;4.07;1.70;;;20.20;79.60;;;;;;5033692;28;20041;-76
2022/06/17 06:48:07;;;;;;;5.35;2.10;;;20.30;79.70;;;;;;5047380;28;20024;-75
2022/06/17 06:50:35;;;;;;;4.90;1.95;;;20.40;78.10;;;;;;5040843;28;20026;-75
2022/06/17 06:53:02;;;;;;;2.67;1.70;;;20.50;77.60;;;;;;5031967;28;20037;-75
2022/06/17 06:55:28;;;;;;;3.60;2.35;;;20.60;77.90;;;;;;5044293;28;20109;-74
2022/06/17 06:57:57;;;;;;;5.97;2.70;;;20.60;77.30;;;;;;5038060;28;20036;-71
2022/06/17 07:00:30;;;;;;;3.15;1.90;;;20.80;76.90;;;;;;5027180;28;20037;-73
2022/06/17 07:02:56;;;;;;;2.65;1.67;;;21.00;75.70;;;;;;5029580;28;20030;-73
2022/06/17 07:05:22;;;;;;;3.47;1.92;;;21.10;75.60;;;;;;5032116;28;20025;-75
2022/06/17 07:07:48;;;;;;;4.57;2.25;;;21.10;75.90;;;;;;5030926;28;20132;-73
2022/06/17 07:10:18;;;;;;;8.63;2.13;;;21.20;75.40;;;;;;5031650;28;20455;-73
2022/06/17 07:12:43;;;;;;;4.72;2.38;;;21.20;75.00;;;;;;5030012;28;20049;-75
2022/06/17 07:15:10;;;;;;;3.25;2.20;;;21.20;75.20;;;;;;5032841;28;20037;-73
2022/06/17 07:17:36;;;;;;;2.10;1.90;;;21.30;76.00;;;;;;5030495;28;20038;-74
2022/06/17 07:20:02;;;;;;;4.07;2.28;;;21.30;75.70;;;;;;5031461;28;20087;-73
2022/06/17 07:22:28;;;;;;;3.28;2.28;;;21.30;75.60;;;;;;5029908;28;20083;-74
2022/06/17 07:24:54;;;;;;;6.10;2.40;;;21.50;74.80;;;;;;5026844;28;20475;-73
2022/06/17 07:27:20;;;;;;;4.82;2.20;;;21.50;76.00;;;;;;5023169;28;20025;-74
2022/06/17 07:29:45;;;;;;;6.53;2.22;;;21.60;75.20;;;;;;5030981;28;20433;-74
2022/06/17 07:32:11;;;;;;;5.10;2.33;;;21.60;75.10;;;;;;5031854;28;20094;-73
2022/06/17 07:34:37;;;;;;;5.35;2.78;;;21.70;75.10;;;;;;5030608;28;20030;-72
2022/06/17 07:39:58;;;;;;;7.40;2.85;;;22.10;75.00;;;;;;5029073;28;20072;-72
2022/06/17 07:42:39;;;;;;;4.72;2.28;;;22.20;74.20;;;;;;5034554;28;20035;-72
2022/06/17 07:45:10;;;;;;;7.80;2.55;;;22.40;75.30;;;;;;5031909;28;20092;-68
2022/06/17 07:47:42;;;;;;;6.63;2.22;;;22.50;73.90;;;;;;5032459;28;20425;-68
2022/06/17 07:50:13;;;;;;;5.03;2.45;;;22.70;74.10;;;;;;5031175;28;20116;-68
2022/06/17 07:52:39;;;;;;;4.45;2.30;;;22.70;73.40;;;;;;5034045;28;20044;-68
2022/06/17 07:55:06;;;;;;;5.78;2.35;;;22.80;73.70;;;;;;5046065;28;20112;-68
2022/06/17 07:57:32;;;;;;;5.22;2.90;;;22.90;73.90;;;;;;5034440;28;20041;-68
2022/06/17 07:59:58;;;;;;;5.47;2.60;;;23.10;73.30;;;;;;5035242;28;20449;-69
2022/06/17 08:02:24;;;;;;;3.78;2.72;;;23.20;73.50;;;;;;5031747;28;20034;-70
2022/06/17 08:04:51;;;;;;;5.70;3.13;;;23.30;72.70;;;;;;5045636;28;20028;-69
2022/06/17 08:07:17;;;;;;;5.55;2.47;;;23.30;71.70;;;;;;5041492;28;20328;-66
2022/06/17 08:09:43;;;;;;;5.75;2.80;;;23.40;71.60;;;;;;5033014;28;20136;-67
2022/06/17 08:12:13;;;;;;;5.32;2.80;;;23.40;71.70;;;;;;5020461;28;20034;-67
2022/06/17 08:14:47;;;;;;;9.40;2.85;;;23.40;72.10;;;;;;5031933;28;20398;-66
2022/06/17 08:17:16;;;;;;;7.05;3.20;;;23.50;71.80;;;;;;5026988;28;20033;-65
2022/06/17 08:19:46;;;;;;;7.32;2.83;;;23.50;71.30;;;;;;5037578;28;20026;-67
2022/06/17 08:22:12;;;;;;;7.45;3.50;;;23.50;71.60;;;;;;5034372;28;20029;-65
2022/06/17 08:24:38;;;;;;;7.95;3.38;;;23.60;71.30;;;;;;5029921;28;20096;-65
2022/06/17 08:27:04;;;;;;;3.90;2.50;;;23.60;71.00;;;;;;5032675;28;20433;-66
2022/06/17 08:29:30;;;;;;;4.07;2.67;;;23.70;71.40;;;;;;5028627;28;20028;-74
2022/06/17 08:32:44;;;;;;;9.00;3.03;;;23.60;71.30;;;;;;5031156;28;20025;-71
2022/06/17 08:34:42;;;;;;;10.02;2.83;;;23.70;71.70;;;;;;5034416;28;20025;-67
2022/06/17 08:37:10;;;;;;;6.43;2.47;;;23.80;71.70;;;;;;5035022;28;20022;-67
2022/06/17 08:39:36;;;;;;;4.95;2.80;;;24.00;71.40;;;;;;5022469;28;20034;-66
2022/06/17 08:42:34;;;;;;;8.80;3.95;;;24.10;71.00;;;;;;5034900;28;20436;-67
2022/06/17 08:45:28;;;;;;;4.57;2.78;;;24.20;69.00;;;;;;5029001;28;20125;-66
2022/06/17 08:48:13;;;;;;;3.75;2.65;;;24.40;68.50;;;;;;5031439;28;20034;-67
2022/06/17 08:50:54;;;;;;;4.20;2.05;;;24.40;69.00;;;;;;5039765;28;20056;-67
2022/06/17 08:53:30;;;;;;;4.05;2.03;;;24.40;67.90;;;;;;5019207;28;20036;-67
2022/06/17 08:55:59;;;;;;;5.35;2.75;;;24.40;66.50;;;;;;5025420;28;20381;-67
2022/06/17 08:58:31;;;;;;;2.30;1.73;;;24.60;66.70;;;;;;5025276;28;20033;-70
2022/06/17 09:01:06;;;;;;;3.22;1.48;;;24.70;63.90;;;;;;5039685;28;20025;-68
2022/06/17 09:03:56;;;;;;;1.92;1.67;;;24.80;62.70;;;;;;5029722;28;20100;-69
2022/06/17 09:06:48;;;;;;;3.58;1.50;;;24.80;62.00;;;;;;5034653;28;20033;-73
2022/06/17 09:09:32;;;;;;;5.13;1.85;;;24.80;62.30;;;;;;5045333;28;20032;-72
2022/06/17 09:12:21;;;;;;;3.15;2.28;;;24.90;62.80;;;;;;5033034;28;20030;-72
2022/06/17 09:15:09;;;;;;;4.63;2.42;;;25.10;62.50;;;;;;5026993;28;20413;-70
2022/06/17 09:17:46;;;;;;;5.18;2.30;;;25.20;62.70;;;;;;5027491;28;20037;-72
2022/06/17 09:20:18;;;;;;;5.07;2.50;;;25.20;63.30;;;;;;5043366;28;20100;-71
2022/06/17 09:22:54;;;;;;;2.45;2.00;;;25.40;63.00;;;;;;5025950;28;20036;-71
2022/06/17 09:25:23;;;;;;;4.97;1.88;;;25.50;62.30;;;;;;5043443;28;20032;-71
2022/06/17 09:27:51;;;;;;;5.50;2.13;;;25.70;60.80;;;;;;5036294;28;20041;-71
2022/06/17 09:30:31;;;;;;;4.47;1.88;;;25.60;61.00;;;;;;5022667;28;20112;-69
2022/06/17 09:33:19;;;;;;;4.57;1.90;;;25.50;60.70;;;;;;5033581;28;20029;-66
2022/06/17 09:35:50;;;;;;;2.97;2.10;;;25.40;60.40;;;;;;5030824;28;20219;-67
2022/06/17 09:38:34;;;;;;;5.13;2.05;;;25.50;60.30;;;;;;5032219;28;20045;-66
2022/06/17 09:41:11;;;;;;;5.85;2.03;;;25.50;60.00;;;;;;5026395;28;20022;-68
2022/06/17 09:43:46;;;;;;;6.13;2.40;;;25.60;59.40;;;;;;5014857;28;20045;-68
2022/06/17 09:46:39;;;;;;;2.90;1.85;;;25.70;60.00;;;;;;5024089;28;20029;-68
2022/06/17 09:49:18;;;;;;;2.78;1.90;;;25.90;60.90;;;;;;5030392;28;20452;-69
2022/06/17 09:51:46;;;;;;;2.72;1.63;;;25.90;58.50;;;;;;5022563;28;20034;-68
2022/06/17 09:54:27;;;;;;;1.75;1.63;;;25.90;57.10;;;;;;5033048;28;20422;-68
2022/06/17 09:57:08;;;;;;;2.05;1.77;;;26.00;57.50;;;;;;5032067;28;20033;-68
2022/06/17 09:59:48;;;;;;;1.75;1.50;;;26.20;57.80;;;;;;5034339;28;20502;-68
2022/06/17 10:02:23;;;;;;;2.55;1.50;;;26.30;57.20;;;;;;5037111;28;20028;-68
2022/06/17 10:04:54;;;;;;;2.50;1.85;;;26.50;56.70;;;;;;5040747;28;20029;-67
2022/06/17 10:07:41;;;;;;;4.93;1.50;;;26.60;56.90;;;;;;5018668;28;20037;-69
2022/06/17 10:10:29;;;;;;;2.40;1.65;;;26.90;56.20;;;;;;5031165;28;20053;-67
2022/06/17 10:13:15;;;;;;;1.75;1.65;;;27.10;55.50;;;;;;5030940;28;20052;-67
2022/06/17 10:19:01;;;;;;;4.78;1.90;;;27.30;54.60;;;;;;5031692;28;20411;-67
2022/06/17 10:22:05;;;;;;;3.17;1.83;;;27.50;55.40;;;;;;5032481;28;20025;-68
2022/06/17 10:24:47;;;;;;;8.48;2.00;;;27.50;56.10;;;;;;5028515;28;20108;-68
2022/06/17 10:27:45;;;;;;;3.33;1.98;;;27.60;54.50;;;;;;5030617;28;20030;-68
2022/06/17 10:30:16;;;;;;;3.83;1.73;;;27.70;55.40;;;;;;5048312;28;20037;-69
2022/06/17 10:32:46;;;;;;;2.70;1.63;;;27.80;54.50;;;;;;5033689;28;20455;-68
2022/06/17 10:35:31;;;;;;;3.30;2.00;;;27.80;53.10;;;;;;5032534;28;20108;-67
2022/06/17 10:38:01;;;;;;;3.50;1.85;;;27.80;54.10;;;;;;5032305;28;20079;-69
2022/06/17 10:40:29;;;;;;;2.95;1.55;;;27.80;54.00;;;;;;5031479;28;20136;-67
2022/06/17 10:42:59;;;;;;;3.38;1.63;;;27.70;53.50;;;;;;5037860;28;20033;-68
2022/06/17 10:45:25;;;;;;;4.85;1.77;;;27.60;54.50;;;;;;5043752;28;20087;-68
2022/06/17 10:48:23;;;;;;;1.80;1.70;;;27.50;53.90;;;;;;5031637;28;20124;-68
2022/06/17 10:50:48;;;;;;;3.30;2.00;;;27.60;55.00;;;;;;5032595;28;20077;-68
2022/06/17 10:53:45;;;;;;;3.22;1.63;;;27.70;55.70;;;;;;5032366;28;20021;-68
2022/06/17 10:56:17;;;;;;;1.27;1.17;;;27.90;54.10;;;;;;5032306;28;20108;-69
2022/06/17 10:58:56;;;;;;;4.57;1.90;;;28.00;53.30;;;;;;5029174;28;20068;-68
2022/06/17 11:01:22;;;;;;;3.27;1.63;;;28.30;53.00;;;;;;5027009;28;20040;-68
2022/06/17 11:03:48;;;;;;;5.50;2.10;;;28.40;52.30;;;;;;5037522;28;20021;-68
2022/06/17 11:06:25;;;;;;;3.22;1.60;;;28.50;53.10;;;;;;5037087;28;20086;-68
2022/06/17 11:09:02;;;;;;;3.25;1.65;;;28.60;51.80;;;;;;5030472;28;20037;-68
2022/06/17 11:14:31;;;;;;;1.60;1.50;;;28.90;52.70;;;;;;5038565;28;20100;-68
2022/06/17 11:16:57;;;;;;;3.25;1.40;;;29.00;50.70;;;;;;5032833;28;20049;-69
2022/06/17 11:19:26;;;;;;;2.20;1.48;;;29.10;50.70;;;;;;5047826;28;20060;-68
2022/06/17 11:21:58;;;;;;;1.95;1.40;;;29.30;49.20;;;;;;5041639;28;20029;-69
2022/06/17 11:24:26;;;;;;;2.65;1.42;;;29.20;49.20;;;;;;5035023;28;20032;-68
2022/06/17 11:27:17;;;;;;;2.15;1.08;;;29.10;48.70;;;;;;5031597;28;20030;-68
2022/06/17 11:29:48;;;;;;;2.85;1.50;;;29.00;49.10;;;;;;5044915;28;20021;-69
2022/06/17 11:32:20;;;;;;;3.15;1.45;;;29.00;49.00;;;;;;5031677;28;20360;-68
2022/06/17 11:34:54;;;;;;;1.83;1.17;;;29.10;49.80;;;;;;5029396;28;20030;-67
2022/06/17 11:37:24;;;;;;;1.50;1.33;;;29.30;48.70;;;;;;5027138;28;20131;-68
2022/06/17 11:40:06;;;;;;;;;;;29.50;48.90;;;;;;5030360;28;20637;-68
2022/06/17 11:42:32;;;;;;;1.52;1.38;;;29.70;47.50;;;;;;5033818;28;19908;-69
2022/06/17 11:45:01;;;;;;;2.10;1.27;;;29.50;65.70;;;;;;5033315;28;20064;-68
2022/06/17 11:47:30;;;;;;;3.43;1.13;;;30.00;66.10;;;;;;5030052;28;20478;-68
2022/06/17 11:49:59;;;;;;;3.72;1.67;;;30.00;71.00;;;;;;5030587;28;20031;-68
2022/06/17 11:52:34;;;;;;;5.55;1.70;;;30.20;70.90;;;;;;5030492;28;20022;-68
2022/06/17 11:55:01;;;;;;;1.73;1.52;;;30.30;71.10;;;;;;5030719;28;20026;-67
2022/06/17 11:57:33;;;;;;;3.67;1.90;;;30.20;71.40;;;;;;5030852;28;20478;-68
2022/06/17 12:00:04;;;;;;;1.30;1.20;;;30.30;71.80;;;;;;5030310;28;20103;-69
2022/06/17 12:02:30;;;;;;;1.50;1.40;;;30.30;71.60;;;;;;5029679;28;20514;-68
2022/06/17 12:05:09;;;;;;;2.28;1.30;;;30.30;71.70;;;;;;5033331;28;20040;-74
2022/06/17 12:07:46;;;;;;;1.97;1.13;;;30.40;71.50;;;;;;5029099;28;20032;-72
2022/06/17 12:10:22;;;;;;;2.17;1.70;;;30.50;73.00;;;;;;5019993;28;20371;-72
2022/06/17 12:12:51;;;;;;;1.42;1.33;;;30.60;73.00;;;;;;5035500;28;20033;-71
2022/06/17 12:15:34;;;;;;;4.40;1.35;;;30.70;73.00;;;;;;5031944;28;20029;-72
2022/06/17 12:18:02;;;;;;;2.35;1.40;;;30.70;73.30;;;;;;5030697;28;20029;-72
2022/06/17 12:20:46;;;;;;;1.50;1.30;;;30.70;73.50;;;;;;5028783;28;20040;-72
2022/06/17 12:23:25;;;;;;;2.53;1.33;;;30.70;72.80;;;;;;5030136;28;20659;-72
2022/06/17 12:26:05;;;;;;;2.05;1.20;;;30.60;73.20;;;;;;5029874;28;20048;-72
2022/06/17 12:28:52;;;;;;;1.15;1.05;;;30.60;73.00;;;;;;5028892;28;20029;-73
2022/06/17 12:31:45;;;;;;;3.70;1.35;;;30.60;72.90;;;;;;5028656;28;20025;-75
2022/06/17 12:34:34;;;;;;;2.88;1.40;;;30.70;71.70;;;;;;5024645;28;20095;-76
2022/06/17 12:37:24;;;;;;;3.07;1.30;;;30.40;72.30;;;;;;5026881;28;20033;-76
2022/06/17 12:40:08;;;;;;;1.13;1.13;;;30.30;73.00;;;;;;5021736;28;20060;-75
2022/06/17 12:42:41;;;;;;;1.58;1.10;;;30.30;72.40;;;;;;5035780;28;20120;-73
2022/06/17 12:45:19;;;;;;;4.93;1.10;;;30.40;72.00;;;;;;5034271;28;20045;-80
2022/06/17 12:47:50;;;;;;;2.03;1.00;;;;;;;;;;5033363;28;20443;-75
2022/06/17 12:53:53;;;;;;;1.10;1.00;;;30.70;43.70;;;;;;5028290;28;20589;-79
2022/06/17 12:56:25;;;;;;;1.02;1.02;;;30.70;43.60;;;;;;5025889;28;20030;-79
2022/06/17 12:59:00;;;;;;;3.03;1.30;;;30.70;42.40;;;;;;5033843;28;20040;-76
2022/06/17 13:01:49;;;;;;;1.55;1.10;;;30.70;44.60;;;;;;5033826;28;20060;-75
2022/06/17 13:04:21;;;;;;;1.17;0.93;;;30.90;43.90;;;;;;5033765;28;20025;-74
2022/06/17 13:06:51;;;;;;;4.32;1.17;;;31.20;42.30;;;;;;5031642;28;20040;-74
2022/06/17 13:09:33;;;;;;;3.72;1.10;;;31.20;43.30;;;;;;5033714;28;20029;-73
2022/06/17 13:12:15;;;;;;;2.15;1.08;;;31.20;43.30;;;;;;5033488;28;20455;-75
2022/06/17 13:14:54;;;;;;;1.08;0.98;;;31.30;43.80;;;;;;5033941;28;20501;-74
2022/06/17 13:17:27;;;;;;;1.00;1.00;;;31.50;43.20;;;;;;5035832;28;20025;-73
2022/06/17 13:20:09;;;;;;;1.50;0.88;;;31.50;42.20;;;;;;5027934;28;20053;-74
2022/06/17 13:22:50;;;;;;;3.20;1.17;;;31.50;41.70;;;;;;5014806;28;20037;-72
2022/06/17 13:25:27;;;;;;;2.38;1.00;;;31.50;41.80;;;;;;5029383;28;20360;-76
2022/06/17 13:28:01;;;;;;;1.13;1.02;;;31.60;42.10;;;;;;5027902;28;20116;-74
2022/06/17 13:30:33;;;;;;;4.32;1.20;;;31.50;41.10;;;;;;5032298;28;20064;-75
2022/06/17 13:33:27;;;;;;;2.90;1.00;;;31.50;42.10;;;;;;5033216;28;20018;-75
2022/06/17 13:35:57;;;;;;;1.15;0.80;;;31.60;42.80;;;;;;5030156;28;20092;-75
2022/06/17 13:38:32;;;;;;;1.05;0.95;;;;;;;;;;5031818;28;20033;-75